Time;durP1;ratioP1;P1;durP2;ratioP2;P2;SDS_P1;SDS_P2;PMS_P1;PMS_P2;Temp;Humidity;BMP_temperature;BMP_pressure;BME280_temperature;BME280_humidity;BME280_pressure;Samples;Min_cycle;Max_cycle;Signal;HPM_P1;HPM_P2
2022/05/08 00:01:48;;;;;;;10.90;3.60;;;;;;;13.74;42.97;95682.34;5016300;28;20072;-82
2022/05/08 00:04:13;;;;;;;10.77;3.45;;;;;;;13.41;42.44;95610.19;5015803;28;20048;-82
2022/05/08 00:06:39;;;;;;;7.28;2.63;;;;;;;13.10;43.28;95628.25;4997578;28;20045;-82
2022/05/08 00:09:04;;;;;;;11.00;3.33;;;;;;;13.89;43.09;95730.19;5015534;28;20045;-82
2022/05/08 00:11:30;;;;;;;6.93;2.78;;;;;;;13.02;42.94;95593.44;5015151;28;20130;-82
2022/05/08 00:13:55;;;;;;;15.73;3.30;;;;;;;12.49;43.63;95576.50;5015557;28;20409;-83
2022/05/08 00:16:21;;;;;;;14.82;3.45;;;;;;;13.53;43.97;95729.69;5015702;28;20099;-82
2022/05/08 00:18:46;;;;;;;13.30;3.00;;;;;;;13.06;43.98;95666.34;5015362;28;20045;-82
2022/05/08 00:21:12;;;;;;;8.80;3.30;;;;;;;13.01;43.71;95637.88;5015963;28;20513;-82
2022/05/08 00:23:37;;;;;;;5.00;2.67;;;;;;;12.69;43.57;95561.19;4997272;28;20040;-82
2022/05/08 00:26:07;;;;;;;8.85;3.42;;;;;;;13.11;43.35;95631.69;4997512;28;20119;-82
2022/05/08 00:28:33;;;;;;;6.25;3.03;;;;;;;13.82;43.65;95741.19;5015413;28;20036;-82
2022/05/08 00:30:58;;;;;;;7.30;2.75;;;;;;;13.64;43.73;95731.22;5015274;28;20037;-82
2022/05/08 00:33:24;;;;;;;9.52;2.95;;;;;;;12.52;43.91;95533.34;4997299;28;20263;-83
2022/05/08 00:35:50;;;;;;;7.40;3.22;;;;;;;13.23;43.56;95685.44;4996850;28;20530;-82
2022/05/08 00:38:15;;;;;;;11.02;3.20;;;;;;;12.91;43.58;95624.63;5015390;28;20025;-82
2022/05/08 00:40:41;;;;;;;7.07;3.03;;;;;;;13.06;43.67;95659.16;4997156;28;20417;-83
2022/05/08 00:43:31;;;;;;;8.30;3.90;;;;;;;13.60;43.39;95743.50;5015403;28;20050;-82
2022/05/08 00:45:58;;;;;;;9.10;3.40;;;;;;;12.81;43.25;95627.38;5015477;28;20091;-82
2022/05/08 00:48:23;;;;;;;6.97;3.13;;;;;;;13.66;43.03;95739.72;5015104;28;20037;-82
2022/05/08 00:50:52;;;;;;;9.73;4.28;;;;;;;12.22;43.77;95535.13;5015740;28;20712;-83
2022/05/08 00:53:19;;;;;;;10.38;3.03;;;;;;;11.81;44.43;95568.31;5014554;28;20034;-82
2022/05/08 00:55:46;;;;;;;10.10;3.25;;;;;;;12.15;43.95;95544.50;5014801;28;20041;-82
2022/05/08 00:58:11;;;;;;;10.68;3.00;;;;;;;13.41;43.49;95722.06;4997193;28;20044;-82
2022/05/08 01:00:37;;;;;;;12.10;3.47;;;;;;;12.71;43.83;95619.47;4997010;28;20539;-82
2022/05/08 01:03:03;;;;;;;8.40;3.53;;;;;;;12.32;44.94;95644.13;4997472;28;20492;-82
2022/05/08 01:05:29;;;;;;;13.07;3.28;;;;;;;12.23;44.20;95602.41;5015265;28;20044;-82
2022/05/08 01:07:55;;;;;;;7.25;3.47;;;;;;;12.77;44.12;95701.66;4996735;28;20143;-82
2022/05/08 01:10:20;;;;;;;12.07;3.30;;;;;;;13.17;43.16;95723.03;5015428;28;20132;-82
2022/05/08 01:12:46;;;;;;;5.00;2.83;;;;;;;12.70;42.99;95650.59;5018175;28;20037;-82
2022/05/08 01:15:16;;;;;;;9.35;4.43;;;;;;;13.08;42.83;95701.47;5001238;28;20494;-82
2022/05/08 01:17:41;;;;;;;12.80;3.08;;;;;;;12.37;43.29;95598.09;5019743;28;20041;-82
2022/05/08 01:20:07;;;;;;;14.35;3.53;;;;;;;10.41;43.44;95303.78;5019262;28;20637;-82
2022/05/08 01:22:33;;;;;;;9.35;3.45;;;;;;;11.67;43.34;95508.81;5019295;28;20033;-82
2022/05/08 01:25:00;;;;;;;9.10;3.25;;;;;;;13.14;43.26;95724.38;5019368;28;20041;-82
2022/05/08 01:27:26;;;;;;;12.27;3.50;;;;;;;12.28;43.09;95578.47;5019566;28;20047;-82
2022/05/08 01:29:51;;;;;;;11.88;3.83;;;;;;;12.19;43.45;95580.13;5019253;28;20049;-82
2022/05/08 01:32:17;;;;;;;10.60;3.45;;;;;;;12.34;43.94;95599.44;5018746;28;20143;-82
2022/05/08 01:34:42;;;;;;;10.07;2.97;;;;;;;13.06;43.64;95719.59;5018623;28;20117;-82
2022/05/08 01:37:08;;;;;;;6.30;3.70;;;;;;;12.74;44.51;95739.44;4999947;28;20579;-82
2022/05/08 01:39:33;;;;;;;7.25;3.53;;;;;;;12.56;44.08;95692.19;5000095;28;20478;-82
2022/05/08 01:41:59;;;;;;;11.38;3.78;;;;;;;12.15;44.07;95603.78;5018011;28;20034;-82
2022/05/08 01:44:24;;;;;;;13.98;3.17;;;;;;;11.58;44.04;95520.00;4999805;28;20295;-82
2022/05/08 01:48:21;;;;;;;10.60;3.30;;;;;;;12.31;43.89;95628.44;4999664;28;20450;-82
2022/05/08 01:49:35;;;;;;;7.88;3.40;;;;;;;12.11;44.16;95610.72;5017260;28;20586;-82
2022/05/08 01:52:01;;;;;;;15.13;3.88;;;;;;;11.91;43.45;95563.72;4998727;28;20029;-82
2022/05/08 01:54:26;;;;;;;6.60;3.25;;;;;;;12.55;43.37;95687.13;5017462;28;20498;-82
2022/05/08 01:56:52;;;;;;;5.57;3.22;;;;;;;11.55;43.69;95594.91;4998981;28;20099;-82
2022/05/08 01:59:17;;;;;;;9.68;3.22;;;;;;;12.43;43.69;95694.63;5016713;28;20037;-82
2022/05/08 02:01:46;;;;;;;7.72;3.15;;;;;;;11.92;43.60;95605.19;5000116;28;20041;-82
2022/05/08 02:04:15;;;;;;;15.88;4.47;;;;;;;11.55;43.33;95564.88;4999925;28;20060;-82
2022/05/08 02:06:47;;;;;;;12.57;3.65;;;;;;;11.69;42.87;95557.94;5019009;28;20033;-82
2022/05/08 02:09:12;;;;;;;;;;;;;;;12.65;42.67;95711.03;5019214;28;20644;-82
2022/05/08 02:11:37;;;;;;;7.32;3.08;;;;;;;11.68;42.96;95550.22;5018249;28;20044;-83
2022/05/08 02:14:04;;;;;;;7.90;3.58;;;;;;;12.67;43.00;95714.19;4999577;28;20044;-82
2022/05/08 02:16:30;;;;;;;9.73;3.33;;;;;;;11.60;43.11;95551.59;5017626;28;20091;-82
2022/05/08 02:18:55;;;;;;;10.63;3.80;;;;;;;12.64;43.53;95706.78;5017468;28;20041;-82
2022/05/08 02:21:21;;;;;;;7.30;3.30;;;;;;;11.78;42.99;95608.69;4999107;28;20060;-82
2022/05/08 02:23:47;;;;;;;10.73;4.13;;;;;;;11.61;43.30;95572.56;5017216;28;20041;-82
2022/05/08 02:26:13;;;;;;;11.43;3.97;;;;;;;11.07;43.36;95506.03;4999288;28;20367;-82
2022/05/08 02:28:39;;;;;;;7.85;3.50;;;;;;;11.57;43.01;95563.56;4998888;28;20099;-82
2022/05/08 02:31:04;;;;;;;11.25;4.05;;;;;;;11.09;42.68;95497.81;5016797;28;20053;-82
2022/05/08 02:33:30;;;;;;;10.00;3.30;;;;;;;11.85;43.25;95628.59;5017232;28;20045;-82
2022/05/08 02:35:55;;;;;;;10.55;3.95;;;;;;;12.09;43.00;95654.59;4998701;28;20041;-82
2022/05/08 02:38:21;;;;;;;8.98;3.95;;;;;;;11.64;43.35;95602.31;5017182;28;20064;-82
2022/05/08 02:40:46;;;;;;;10.30;4.13;;;;;;;11.76;43.47;95640.03;4998896;28;20045;-82
2022/05/08 02:43:14;;;;;;;7.57;4.10;;;;;;;11.01;43.34;95499.16;4999069;28;20095;-82
2022/05/08 02:45:40;;;;;;;11.60;4.10;;;;;;;12.25;43.48;95704.78;5017074;28;20317;-82
2022/05/08 02:48:07;;;;;;;7.78;4.63;;;;;;;11.61;43.47;95615.06;4999409;28;20570;-82
2022/05/08 02:50:33;;;;;;;13.23;4.47;;;;;;;12.17;44.05;95708.00;5017042;28;20664;-82
2022/05/08 02:52:58;;;;;;;10.48;4.90;;;;;;;11.52;43.41;95591.97;5016767;28;20026;-82
2022/05/08 03:00:52;;;;;;;13.40;5.30;;;;;;;11.19;43.25;95530.47;5017525;28;20047;-82
2022/05/08 03:03:17;;;;;;;9.73;4.60;;;;;;;12.10;43.70;95683.56;4998258;28;20493;-82
2022/05/08 03:05:44;;;;;;;14.65;5.10;;;;;;;11.45;43.87;95599.44;4998315;28;20029;-82
2022/05/08 03:08:11;;;;;;;10.77;5.10;;;;;;;12.21;43.95;95714.38;4998118;28;20033;-82
2022/05/08 03:13:21;;;;;;;13.73;5.05;;;;;;;12.01;43.49;95677.22;5016961;28;20434;-82
2022/05/08 03:15:47;;;;;;;10.85;4.30;;;;;;;11.21;43.39;95570.78;4998948;28;20033;-83
2022/05/08 03:18:14;;;;;;;10.10;4.25;;;;;;;11.58;43.81;95623.59;5016341;28;20072;-82
2022/05/08 03:20:40;;;;;;;15.73;4.30;;;;;;;11.43;44.89;95655.50;5016000;28;20107;-82
2022/05/08 03:23:06;;;;;;;9.20;4.10;;;;;;;11.27;44.00;95592.84;4998203;28;20469;-82
2022/05/08 03:25:31;;;;;;;12.80;5.18;;;;;;;11.41;44.85;95667.44;4997604;28;20481;-82
2022/05/08 03:27:57;;;;;;;9.35;5.15;;;;;;;11.40;44.29;95624.16;4997689;28;20420;-82
2022/05/08 03:30:24;;;;;;;12.48;4.63;;;;;;;11.78;44.24;95696.38;5016061;28;20434;-82
2022/05/08 03:32:49;;;;;;;11.25;3.42;;;;;;;11.49;45.03;95701.44;4997416;28;20128;-82
2022/05/08 03:35:15;;;;;;;11.73;4.50;;;;;;;11.54;44.20;95667.69;4996730;28;20040;-82
2022/05/08 03:37:40;;;;;;;10.82;4.65;;;;;;;10.89;44.86;95598.69;4997135;28;20040;-82
2022/05/08 03:40:06;;;;;;;16.15;4.43;;;;;;;11.24;44.74;95641.16;5015769;28;20030;-82
2022/05/08 03:42:32;;;;;;;8.98;3.50;;;;;;;11.05;44.06;95611.69;5016066;28;20187;-82
2022/05/08 03:44:57;;;;;;;8.27;4.32;;;;;;;11.93;44.03;95718.41;5015708;28;20041;-82
2022/05/08 03:47:23;;;;;;;9.55;3.97;;;;;;;11.48;44.18;95639.53;4997566;28;20258;-82
2022/05/08 03:49:49;;;;;;;10.00;4.22;;;;;;;11.92;43.63;95730.13;4997630;28;20102;-82
2022/05/08 03:52:14;;;;;;;18.25;4.93;;;;;;;11.06;44.52;95613.25;4997891;28;20355;-82
2022/05/08 03:54:40;;;;;;;11.50;4.07;;;;;;;11.17;43.63;95603.44;5015772;28;20500;-82
2022/05/08 03:57:05;;;;;;;14.57;4.60;;;;;;;11.41;44.00;95644.34;4997680;28;20317;-82
2022/05/08 03:59:31;;;;;;;20.70;4.43;;;;;;;11.78;43.61;95701.69;5015347;28;20112;-82
2022/05/08 04:01:57;;;;;;;16.02;3.95;;;;;;;10.94;43.96;95572.13;5015210;28;20042;-82
2022/05/08 04:04:22;;;;;;;14.90;3.50;;;;;;;11.53;43.94;95657.31;5015138;28;20048;-82
2022/05/08 04:06:48;;;;;;;7.85;4.13;;;;;;;12.05;43.76;95734.09;5015569;28;20025;-82
2022/05/08 04:09:14;;;;;;;11.98;3.80;;;;;;;11.42;43.49;95647.78;5015415;28;20369;-82
2022/05/08 04:11:40;;;;;;;8.43;3.95;;;;;;;12.20;43.08;95735.94;4997095;28;20095;-82
2022/05/08 04:14:05;;;;;;;15.07;3.95;;;;;;;11.46;43.97;95646.16;4997319;28;20499;-82
2022/05/08 04:16:32;;;;;;;7.15;3.70;;;;;;;12.06;42.85;95722.38;4997015;28;20033;-82
2022/05/08 04:18:57;;;;;;;6.35;3.20;;;;;;;11.66;42.61;95646.16;4997245;28;20458;-82
2022/05/08 04:21:23;;;;;;;10.40;4.15;;;;;;;11.84;42.40;95687.34;5015162;28;20033;-82
2022/05/08 04:26:34;;;;;;;8.68;3.90;;;;;;;11.74;42.71;95687.34;5016036;28;20048;-82
2022/05/08 04:28:59;;;;;;;13.63;4.03;;;;;;;11.38;42.53;95614.84;4997358;28;20029;-82
2022/05/08 04:31:25;;;;;;;7.07;3.20;;;;;;;12.10;43.01;95749.22;5015028;28;20045;-82
2022/05/08 04:33:51;;;;;;;15.25;4.35;;;;;;;11.88;42.22;95701.69;5015323;28;20037;-82
2022/05/08 04:36:17;;;;;;;13.95;4.20;;;;;;;11.51;42.47;95640.88;5015097;28;20036;-82
2022/05/08 04:38:43;;;;;;;6.47;3.70;;;;;;;10.93;43.39;95597.06;5015051;28;20024;-82
2022/05/08 04:41:08;;;;;;;8.60;4.05;;;;;;;11.45;42.58;95641.91;4996583;28;20037;-82
2022/05/08 04:43:34;;;;;;;16.15;4.03;;;;;;;11.35;42.58;95645.41;4996922;28;20041;-82
2022/05/08 04:45:59;;;;;;;10.35;3.85;;;;;;;12.11;42.54;95753.50;4996846;28;20076;-82
2022/05/08 04:48:25;;;;;;;9.75;4.25;;;;;;;11.44;42.15;95635.03;4996778;28;20075;-82
2022/05/08 04:50:50;;;;;;;13.35;3.80;;;;;;;11.88;42.60;95710.47;5014923;28;20095;-82
2022/05/08 04:53:16;;;;;;;16.25;3.67;;;;;;;11.42;43.11;95634.50;4996305;28;20052;-82
2022/05/08 04:55:41;;;;;;;14.10;3.72;;;;;;;10.90;43.43;95571.09;4996760;28;20383;-82
2022/05/08 04:58:07;;;;;;;12.77;3.50;;;;;;;11.79;43.29;95711.28;4996557;28;20033;-82
2022/05/08 05:00:32;;;;;;;12.63;3.95;;;;;;;11.53;43.21;95667.94;5015075;28;20040;-82
2022/05/08 05:02:58;;;;;;;12.77;4.20;;;;;;;11.76;43.03;95674.59;4996673;28;20527;-82
2022/05/08 05:05:23;;;;;;;9.10;3.75;;;;;;;11.59;42.88;95646.41;5015543;28;20132;-82
2022/05/08 05:07:49;;;;;;;12.57;4.13;;;;;;;12.13;42.10;95706.94;4996740;28;20025;-83
2022/05/08 05:10:15;;;;;;;13.43;3.83;;;;;;;12.18;43.12;95728.22;5014966;28;20392;-82
2022/05/08 05:12:40;;;;;;;11.57;3.53;;;;;;;12.34;42.31;95734.28;4997691;28;20040;-82
2022/05/08 05:15:07;;;;;;;9.20;3.92;;;;;;;12.62;42.28;95759.47;4996382;28;20037;-82
2022/05/08 05:17:32;;;;;;;10.15;4.50;;;;;;;11.87;42.34;95666.34;5015252;28;20697;-82
2022/05/08 05:19:58;;;;;;;10.48;5.38;;;;;;;11.66;41.50;95624.91;5015133;28;20030;-82
2022/05/08 05:22:24;;;;;;;12.70;4.22;;;;;;;12.60;41.98;95766.91;5014897;28;20464;-82
2022/05/08 05:24:50;;;;;;;15.35;3.90;;;;;;;11.91;41.97;95653.28;4996333;28;20036;-82
2022/05/08 05:27:16;;;;;;;14.27;4.35;;;;;;;12.70;42.55;95764.22;5014314;28;20033;-82
2022/05/08 05:29:42;;;;;;;16.63;4.50;;;;;;;11.36;42.41;95540.78;4995820;28;20057;-82
2022/05/08 05:32:08;;;;;;;9.13;4.35;;;;;;;12.60;42.74;95740.31;4996339;28;20048;-82
2022/05/08 05:34:33;;;;;;;26.88;5.35;;;;;;;12.71;42.34;95763.16;5014493;28;20048;-82
2022/05/08 05:36:59;;;;;;;11.60;4.25;;;;;;;12.64;42.12;95744.03;5014606;28;20033;-82
2022/05/08 05:39:24;;;;;;;10.20;4.03;;;;;;;12.89;41.92;95765.19;4987713;28;20038;-82
2022/05/08 05:41:50;;;;;;;14.02;3.85;;;;;;;12.56;41.74;95705.47;4994962;28;20543;-82
2022/05/08 05:44:16;;;;;;;11.02;4.00;;;;;;;12.30;41.62;95658.75;4994914;28;20127;-82
2022/05/08 05:49:27;;;;;;;9.38;3.40;;;;;;;12.65;42.92;95701.19;4994470;28;20131;-82
2022/05/08 05:51:53;;;;;;;8.50;3.90;;;;;;;13.02;42.97;95764.63;4994994;28;20064;-82
2022/05/08 05:54:21;;;;;;;9.50;3.33;;;;;;;12.58;41.94;95689.25;4994548;28;20046;-82
2022/05/08 05:56:50;;;;;;;17.10;4.03;;;;;;;12.75;41.35;95765.00;4994452;28;20520;-81
2022/05/08 05:59:16;;;;;;;21.42;4.35;;;;;;;12.24;41.50;95681.13;4998096;28;20678;-82
2022/05/08 06:01:42;;;;;;;11.27;4.70;;;;;;;12.73;41.20;95758.38;4998085;28;20038;-81
2022/05/08 06:04:08;;;;;;;13.98;4.13;;;;;;;12.76;41.21;95755.94;4980930;28;20041;-82
2022/05/08 06:06:33;;;;;;;6.10;3.80;;;;;;;12.03;40.97;95608.63;4998213;28;20192;-82
2022/05/08 06:08:58;;;;;;;8.65;3.80;;;;;;;12.62;41.42;95677.78;4997889;28;20042;-82
2022/05/08 06:11:24;;;;;;;12.68;3.38;;;;;;;12.14;42.39;95596.06;4998513;28;20046;-82
2022/05/08 06:13:50;;;;;;;8.52;3.67;;;;;;;12.70;42.29;95693.16;4998270;28;20073;-82
2022/05/08 06:16:16;;;;;;;10.95;3.70;;;;;;;12.42;41.26;95631.84;4998287;28;20057;-82
2022/05/08 06:18:41;;;;;;;8.55;3.53;;;;;;;12.78;40.98;95662.53;4998265;28;20034;-82
2022/05/08 06:21:06;;;;;;;19.73;4.35;;;;;;;13.35;41.08;95741.81;4998106;28;20049;-82
2022/05/08 06:23:35;;;;;;;12.02;3.78;;;;;;;13.17;40.72;95720.38;4980113;28;20042;-82
2022/05/08 06:26:02;;;;;;;12.43;3.83;;;;;;;13.46;40.05;95748.66;4997707;28;20564;-82
2022/05/08 06:28:28;;;;;;;12.10;3.97;;;;;;;12.45;41.09;95610.81;4997453;28;20453;-82
2022/05/08 06:30:53;;;;;;;6.57;3.45;;;;;;;12.56;41.36;95614.22;5016263;28;20143;-82
2022/05/08 06:33:19;;;;;;;18.13;3.78;;;;;;;13.07;42.03;95690.03;5017252;28;20080;-82
2022/05/08 06:35:44;;;;;;;7.57;3.10;;;;;;;12.58;39.40;95598.78;5017512;28;20037;-82
2022/05/08 06:38:10;;;;;;;6.40;3.83;;;;;;;12.69;38.73;95608.28;5017227;28;20465;-82
2022/05/08 06:40:36;;;;;;;12.13;3.63;;;;;;;12.96;39.25;95651.25;5017450;28;20044;-82
2022/05/08 06:43:02;;;;;;;16.00;3.67;;;;;;;13.22;38.91;95675.03;4999429;28;20103;-82
2022/05/08 06:45:27;;;;;;;8.23;3.80;;;;;;;13.56;40.19;95718.50;4999547;28;20037;-82
2022/05/08 06:47:53;;;;;;;6.78;3.50;;;;;;;12.93;39.42;95613.72;5017879;28;20116;-82
2022/05/08 06:50:18;;;;;;;8.10;3.70;;;;;;;13.82;38.99;95735.84;5017449;28;20482;-82
2022/05/08 06:52:44;;;;;;;6.38;2.60;;;;;;;12.84;39.09;95616.16;5017240;28;20044;-82
2022/05/08 06:55:10;;;;;;;11.32;3.83;;;;;;;13.24;39.38;95703.00;5017317;28;20132;-83
2022/05/08 06:57:35;;;;;;;12.52;3.42;;;;;;;13.07;38.99;95652.75;5017148;28;20042;-82
2022/05/08 07:02:45;;;;;;;8.27;3.05;;;;;;;13.19;39.71;95635.66;5017069;28;20610;-82
2022/05/08 07:05:11;;;;;;;9.73;3.15;;;;;;;13.75;39.22;95724.72;4998449;28;20045;-82
2022/05/08 07:07:36;;;;;;;6.18;3.58;;;;;;;13.62;39.51;95698.72;4999003;28;20052;-82
2022/05/08 07:10:03;;;;;;;7.05;3.28;;;;;;;13.40;39.86;95637.88;5016467;28;20551;-82
2022/05/08 07:12:28;;;;;;;8.25;3.20;;;;;;;13.82;39.85;95697.72;5016425;28;20033;-82
2022/05/08 07:14:54;;;;;;;11.82;3.35;;;;;;;14.05;40.71;95726.31;4998927;28;20423;-82
2022/05/08 07:17:21;;;;;;;8.88;3.63;;;;;;;13.61;41.97;95662.47;4998935;28;20063;-82
2022/05/08 07:19:50;;;;;;;10.05;4.75;;;;;;;14.15;40.03;95720.09;4998259;28;20080;-82
2022/05/08 07:22:16;;;;;;;10.15;3.70;;;;;;;14.13;39.57;95728.38;4998212;28;20191;-82
2022/05/08 07:24:42;;;;;;;11.73;3.83;;;;;;;14.25;39.12;95720.00;5015775;28;20298;-82
2022/05/08 07:27:10;;;;;;;12.45;4.03;;;;;;;14.04;39.95;95671.38;5016963;28;20040;-82
2022/05/08 07:29:43;;;;;;;9.77;3.30;;;;;;;13.87;39.68;95645.19;5016324;28;20143;-82
2022/05/08 07:32:09;;;;;;;9.07;3.30;;;;;;;13.38;39.90;95580.63;5016048;28;20415;-82
2022/05/08 07:37:18;;;;;;;8.95;3.28;;;;;;;13.93;40.37;95659.25;5016457;28;20592;-82
2022/05/08 07:39:44;;;;;;;10.77;4.35;;;;;;;14.36;40.36;95694.78;5016668;28;20033;-83
2022/05/08 07:42:09;;;;;;;12.90;3.85;;;;;;;14.09;40.86;95634.00;5016913;28;20041;-82
2022/05/08 07:44:35;;;;;;;9.70;4.00;;;;;;;14.12;40.14;95628.09;5016341;28;20038;-82
2022/05/08 07:47:00;;;;;;;11.30;3.60;;;;;;;14.28;40.12;95618.81;4997195;28;20041;-82
2022/05/08 07:49:26;;;;;;;8.95;4.00;;;;;;;14.00;39.79;95579.69;5015764;28;20467;-83
2022/05/08 07:51:52;;;;;;;7.03;3.20;;;;;;;14.57;40.33;95644.66;5016191;28;20044;-82
2022/05/08 07:54:18;;;;;;;6.93;3.30;;;;;;;14.73;40.99;95661.25;5016421;28;20065;-82
2022/05/08 07:56:44;;;;;;;10.35;3.42;;;;;;;14.99;39.52;95695.34;5016090;28;20389;-82
2022/05/08 07:59:09;;;;;;;6.82;3.85;;;;;;;14.20;39.04;95613.31;5015506;28;20025;-82
2022/05/08 08:01:35;;;;;;;10.57;3.35;;;;;;;14.32;39.00;95608.38;5015444;28;20030;-82
2022/05/08 08:04:01;;;;;;;10.68;4.07;;;;;;;14.84;39.12;95682.19;4997290;28;20065;-82
2022/05/08 08:06:28;;;;;;;8.75;3.45;;;;;;;14.38;39.92;95609.09;5016009;28;20052;-82
2022/05/08 08:08:54;;;;;;;8.05;3.38;;;;;;;15.09;39.38;95696.28;4997771;28;20114;-82
2022/05/08 08:11:20;;;;;;;10.73;3.35;;;;;;;14.17;39.18;95532.03;5015770;28;20048;-82
2022/05/08 08:13:46;;;;;;;7.82;3.38;;;;;;;14.88;40.06;95645.81;5015405;28;20045;-82
2022/05/08 08:16:12;;;;;;;14.43;3.58;;;;;;;14.78;40.66;95587.25;4996944;28;20041;-82
2022/05/08 08:18:42;;;;;;;9.48;3.70;;;;;;;15.03;40.65;95594.06;5015262;28;20033;-82
2022/05/08 08:21:12;;;;;;;10.75;3.65;;;;;;;15.00;40.98;95590.09;5015275;28;20041;-82
2022/05/08 08:23:40;;;;;;;6.47;3.33;;;;;;;15.01;40.06;95559.66;5015670;28;20116;-82
2022/05/08 08:26:05;;;;;;;7.38;4.13;;;;;;;15.49;42.17;95628.84;4997020;28;20364;-82
2022/05/08 08:28:31;;;;;;;10.65;3.75;;;;;;;15.93;42.02;95678.41;5015150;28;20573;-82
2022/05/08 08:30:56;;;;;;;10.65;4.22;;;;;;;16.02;39.38;95682.75;4997099;28;20554;-82
2022/05/08 08:33:22;;;;;;;10.02;4.30;;;;;;;15.82;39.63;95626.97;5015380;28;20040;-82
2022/05/08 08:35:47;;;;;;;8.32;3.88;;;;;;;15.49;38.78;95575.38;5015050;28;20617;-82
2022/05/08 08:38:14;;;;;;;23.63;4.90;;;;;;;15.69;40.31;95593.00;5015244;28;20152;-82
2022/05/08 08:40:42;;;;;;;6.60;3.67;;;;;;;15.43;38.75;95549.84;5016670;28;20049;-82
2022/05/08 08:43:11;;;;;;;15.25;3.80;;;;;;;15.93;39.74;95614.22;5024379;28;20033;-83
2022/05/08 08:48:34;;;;;;;7.45;3.53;;;;;;;16.45;39.99;95664.56;5016196;28;20099;-82
2022/05/08 08:51:01;;;;;;;8.50;3.35;;;;;;;16.33;39.57;95612.59;4997301;28;20110;-82
2022/05/08 08:53:28;;;;;;;8.02;3.00;;;;;;;16.26;39.07;95615.69;5015274;28;20037;-82
2022/05/08 08:55:56;;;;;;;8.43;3.15;;;;;;;16.26;38.55;95580.91;5014319;28;20037;-82
2022/05/08 08:58:21;;;;;;;7.85;3.00;;;;;;;16.07;38.11;95567.66;5015008;28;20040;-82
2022/05/08 09:00:49;;;;;;;6.93;3.22;;;;;;;16.75;37.86;95655.16;4997081;28;20037;-82
2022/05/08 09:03:25;;;;;;;8.65;3.42;;;;;;;16.76;38.60;95659.41;4997727;28;20037;-82
2022/05/08 09:05:55;;;;;;;5.45;3.50;;;;;;;16.30;38.64;95571.19;4997103;28;20397;-82
2022/05/08 09:08:32;;;;;;;7.75;3.45;;;;;;;16.95;38.90;95656.56;4997977;28;20040;-82
2022/05/08 09:10:59;;;;;;;10.95;3.67;;;;;;;16.38;38.18;95556.31;4997234;28;20068;-82
2022/05/08 09:13:29;;;;;;;12.60;3.72;;;;;;;15.70;39.68;95426.13;4997167;28;20034;-82
2022/05/08 09:16:05;;;;;;;8.32;3.30;;;;;;;16.32;38.91;95490.59;5014669;28;20478;-83
2022/05/08 09:18:45;;;;;;;8.85;3.38;;;;;;;17.27;40.00;95648.34;5015253;28;20060;-82
2022/05/08 09:24:14;;;;;;;7.00;3.50;;;;;;;17.36;38.58;95600.94;5015956;28;20082;-82
2022/05/08 09:26:40;;;;;;;12.75;3.25;;;;;;;17.48;39.12;95640.59;4996712;28;20041;-82
2022/05/08 09:29:07;;;;;;;10.65;3.63;;;;;;;17.38;37.84;95600.66;4995496;28;20060;-82
2022/05/08 09:31:40;;;;;;;9.90;3.33;;;;;;;16.97;37.63;95523.13;4995974;28;20048;-82
2022/05/08 09:34:06;;;;;;;6.68;4.05;;;;;;;17.72;39.65;95633.06;5017466;28;20526;-82
2022/05/08 09:36:32;;;;;;;8.82;3.75;;;;;;;17.65;40.25;95597.03;4999456;28;20057;-82
2022/05/08 09:38:58;;;;;;;10.38;3.83;;;;;;;17.94;38.79;95624.16;5018819;28;20113;-82
2022/05/08 09:41:26;;;;;;;9.32;3.38;;;;;;;18.12;38.01;95628.50;5018081;28;20871;-82
2022/05/08 09:43:54;;;;;;;8.65;2.92;;;;;;;18.19;36.47;95622.69;4999567;28;20045;-82
2022/05/08 09:46:21;;;;;;;7.80;3.80;;;;;;;18.77;35.05;95627.75;5019578;28;20120;-82
2022/05/08 09:48:47;;;;;;;12.38;3.55;;;;;;;19.53;33.88;95611.97;5004246;28;20470;-82
2022/05/08 09:51:17;;;;;;;7.70;3.25;;;;;;;20.38;32.65;95542.78;5017555;28;20065;-82
2022/05/08 09:53:44;;;;;;;5.43;3.25;;;;;;;21.65;29.96;95555.88;5018052;28;20033;-82
2022/05/08 09:56:11;;;;;;;15.18;3.38;;;;;;;23.07;26.64;95601.69;5017735;28;20235;-82
2022/05/08 09:58:41;;;;;;;6.15;2.70;;;;;;;23.46;25.97;95535.91;4999918;28;20591;-82
2022/05/08 10:01:09;;;;;;;11.43;2.70;;;;;;;24.57;23.80;95589.03;4999214;28;20037;-83
2022/05/08 10:03:35;;;;;;;3.83;1.67;;;;;;;25.38;20.11;95600.91;5017755;28;20048;-82
2022/05/08 10:06:01;;;;;;;5.32;2.35;;;;;;;24.86;22.39;95470.31;4999972;28;20144;-83
2022/05/08 10:08:33;;;;;;;4.30;1.88;;;;;;;24.86;100.00;95594.50;5017921;28;20037;-83
2022/05/08 10:16:45;;;;;;;3.15;1.60;;;;;;;27.16;16.16;95591.06;5017272;28;20045;-82
2022/05/08 10:19:31;;;;;;;2.50;1.40;;;;;;;27.63;15.54;95581.53;5018063;28;20037;-83
2022/05/08 10:22:13;;;;;;;5.40;1.73;;;;;;;28.13;16.15;95568.41;4999832;28;20394;-82
2022/05/08 10:24:54;;;;;;;6.18;1.75;;;;;;;27.77;19.11;95575.47;4999515;28;20530;-83
2022/05/08 10:27:31;;;;;;;4.60;1.80;;;;;;;27.99;17.12;95566.34;5017449;28;20500;-83
2022/05/08 10:29:56;;;;;;;3.67;1.70;;;;;;;28.12;17.16;95569.56;4990250;28;20133;-83
2022/05/08 10:32:28;;;;;;;4.43;1.88;;;;;;;28.10;15.85;95564.50;4980032;28;20044;-82
2022/05/08 10:35:06;;;;;;;5.43;2.35;;;;;;;28.38;16.17;95551.09;4997815;28;20495;-82
2022/05/08 10:37:31;;;;;;;8.25;2.10;;;;;;;27.49;18.15;95535.84;4997633;28;20041;-81
2022/05/08 10:39:57;;;;;;;3.45;1.70;;;;;;;27.77;15.52;95494.50;4979215;28;20041;-82
2022/05/08 10:42:39;;;;;;;4.72;1.90;;;;;;;28.39;15.81;95557.34;4998284;28;20113;-82
2022/05/08 10:45:05;;;;;;;6.97;2.10;;;;;;;28.01;17.53;95526.63;4980184;28;20065;-82
2022/05/08 10:47:36;;;;;;;9.30;2.58;;;;;;;27.71;18.68;95553.22;4997552;28;20041;-82
2022/05/08 10:50:03;;;;;;;4.28;1.92;;;;;;;28.14;18.39;95548.19;4998199;28;20539;-81
2022/05/08 10:52:33;;;;;;;4.97;1.55;;;;;;;28.23;16.24;95540.47;4999107;28;20045;-81
2022/05/08 10:55:04;;;;;;;6.55;2.00;;;;;;;28.06;17.09;95470.22;4980443;28;20037;-82
2022/05/08 10:57:30;;;;;;;;;;;;;;;28.33;17.70;95531.59;4986455;28;20127;-82
2022/05/08 10:59:55;;;;;;;4.15;1.52;;;;;;;28.33;17.95;95537.84;5003805;28;19975;-82
2022/05/08 11:02:40;;;;;;;6.10;1.73;;;;;;;28.72;16.96;95529.13;4985579;28;20138;-81
2022/05/08 11:05:07;;;;;;;3.15;1.80;;;;;;;28.64;17.69;95502.97;4997938;28;20026;-82
2022/05/08 11:07:32;;;;;;;5.78;1.80;;;;;;;27.69;18.28;95402.19;4998130;28;20042;-83
2022/05/08 11:09:58;;;;;;;3.80;1.90;;;;;;;27.95;17.70;95468.19;4997450;28;20578;-82
2022/05/08 11:12:24;;;;;;;3.75;2.00;;;;;;;28.14;19.06;95469.88;4997448;28;20046;-82
2022/05/08 11:14:49;;;;;;;5.43;1.83;;;;;;;28.39;18.13;95456.44;5000037;28;20032;-81
2022/05/08 11:17:17;;;;;;;8.35;2.78;;;;;;;28.70;18.47;95518.59;4978707;28;20041;-82
2022/05/08 11:19:52;;;;;;;7.38;2.15;;;;;;;29.04;17.62;95515.66;4978925;28;20041;-82
2022/05/08 11:22:18;;;;;;;8.15;1.75;;;;;;;28.49;17.78;95457.66;4978846;28;20038;-82
2022/05/08 11:24:47;;;;;;;4.60;2.08;;;;;;;28.99;17.21;95518.78;4996504;28;20041;-82
2022/05/08 11:27:13;;;;;;;7.22;2.50;;;;;;;28.94;17.08;95495.34;4996975;28;20500;-82
2022/05/08 11:29:46;;;;;;;9.02;2.15;;;;;;;29.31;15.74;95508.75;4979077;28;20411;-82
2022/05/08 11:38:03;;;;;;;5.53;1.60;;;;;;;29.39;14.30;95501.38;4996657;28;20064;-82
2022/05/08 11:40:30;;;;;;;8.48;1.50;;;;;;;28.98;15.08;95477.03;4996256;28;20038;-82
2022/05/08 11:42:55;;;;;;;5.93;1.48;;;;;;;29.18;13.73;95431.06;4978174;28;20491;-82
2022/05/08 11:45:21;;;;;;;2.38;1.52;;;;;;;29.35;13.76;95433.09;4977800;28;20282;-82
2022/05/08 11:47:54;;;;;;;6.90;1.98;;;;;;;29.71;16.43;95468.66;4978117;28;20558;-82
2022/05/08 11:50:20;;;;;;;3.92;1.70;;;;;;;28.93;16.30;95405.63;4996255;28;20587;-82
2022/05/08 11:52:46;;;;;;;1.73;1.50;;;;;;;29.82;14.61;95481.16;4996765;28;20053;-82
2022/05/08 11:55:11;;;;;;;4.03;1.48;;;;;;;29.60;14.13;95411.22;4995142;28;20701;-82
2022/05/08 11:57:44;;;;;;;6.30;2.20;;;;;;;29.79;14.35;95412.81;4996335;28;20056;-83
2022/05/08 12:00:13;;;;;;;5.72;2.10;;;;;;;29.93;12.80;95483.91;4996458;28;20580;-82
2022/05/08 12:02:46;;;;;;;2.55;1.52;;;;;;;29.84;13.97;95483.50;4996495;28;20042;-82
2022/05/08 12:05:23;;;;;;;4.60;1.45;;;;;;;30.06;15.19;95485.09;4996484;28;20068;-82